Adams, Illinois
Current Conditions -  °F | °C
As of 5:54 AM on Thursday 23 Oct 2014 (Local Time) from KUIN Reporting Station
Clear Clear  
Wind Chill: 43°   Ceiling: Unl
Heat Index: 46°   Visibility: 10mi
Dew Point: 40°   Wind: 6mph
Humidity: 79%   Direction: 170°S
Pressure: 30.17"   Gusts: NA
Location:  39.8875°N, 91.0352°W
Report Text: KUIN 231054Z AUTO 17005KT 10SM CLR 08/04 A3017 RMK AO2 SLP216 T00780044
Loading
Personal Weather Stations






























Interactive Weather Map
Tropical Storm Tracking
New forecast layout! Learn more

10-Day Weather Forecast

Advertisements
Track Severe Weather on mobile